sensor_id;sensor_type;location;lat;lon;timestamp;pressure;altitude;pressure_sealevel;temperature;humidity
20455;BME280;10386;54.314;10.022;2023-02-17T00:00:56;100556.50;;;8.43;100.00
20455;BME280;10386;54.314;10.022;2023-02-17T00:03:25;100553.75;;;8.57;100.00
20455;BME280;10386;54.314;10.022;2023-02-17T00:05:52;100553.38;;;8.49;100.00
20455;BME280;10386;54.314;10.022;2023-02-17T00:08:19;100551.97;;;8.43;100.00
20455;BME280;10386;54.314;10.022;2023-02-17T00:10:57;100544.28;;;8.50;100.00
20455;BME280;10386;54.314;10.022;2023-02-17T00:13:24;100539.22;;;8.45;100.00
20455;BME280;10386;54.314;10.022;2023-02-17T00:15:51;100533.09;;;8.56;100.00
20455;BME280;10386;54.314;10.022;2023-02-17T00:18:18;100529.03;;;8.49;100.00
20455;BME280;10386;54.314;10.022;2023-02-17T00:20:45;100521.88;;;8.48;100.00
20455;BME280;10386;54.314;10.022;2023-02-17T00:23:12;100508.28;;;8.49;100.00
20455;BME280;10386;54.314;10.022;2023-02-17T00:25:39;100500.00;;;8.65;100.00
20455;BME280;10386;54.314;10.022;2023-02-17T00:28:06;100493.81;;;8.63;100.00
20455;BME280;10386;54.314;10.022;2023-02-17T00:30:34;100490.00;;;8.53;100.00
20455;BME280;10386;54.314;10.022;2023-02-17T00:33:02;100490.78;;;8.55;100.00
20455;BME280;10386;54.314;10.022;2023-02-17T00:35:29;100477.13;;;8.56;100.00
20455;BME280;10386;54.314;10.022;2023-02-17T00:37:56;100475.41;;;8.55;100.00
20455;BME280;10386;54.314;10.022;2023-02-17T00:40:22;100466.00;;;8.61;100.00
20455;BME280;10386;54.314;10.022;2023-02-17T00:42:49;100468.59;;;8.62;100.00
20455;BME280;10386;54.314;10.022;2023-02-17T00:45:16;100462.19;;;8.63;100.00
20455;BME280;10386;54.314;10.022;2023-02-17T00:47:43;100457.69;;;8.64;100.00
20455;BME280;10386;54.314;10.022;2023-02-17T00:50:10;100450.09;;;8.69;100.00
20455;BME280;10386;54.314;10.022;2023-02-17T00:52:36;100448.59;;;8.65;100.00
20455;BME280;10386;54.314;10.022;2023-02-17T00:55:03;100439.16;;;8.70;100.00
20455;BME280;10386;54.314;10.022;2023-02-17T00:57:30;100428.47;;;8.69;100.00
20455;BME280;10386;54.314;10.022;2023-02-17T00:59:58;100418.06;;;8.75;100.00
20455;BME280;10386;54.314;10.022;2023-02-17T01:02:24;100426.06;;;8.77;100.00
20455;BME280;10386;54.314;10.022;2023-02-17T01:04:51;100424.78;;;8.70;100.00
20455;BME280;10386;54.314;10.022;2023-02-17T01:07:18;100415.47;;;8.74;100.00
20455;BME280;10386;54.314;10.022;2023-02-17T01:09:45;100412.31;;;8.80;100.00
20455;BME280;10386;54.314;10.022;2023-02-17T01:12:12;100412.84;;;8.72;100.00
20455;BME280;10386;54.314;10.022;2023-02-17T01:14:39;100411.34;;;8.81;100.00
20455;BME280;10386;54.314;10.022;2023-02-17T01:17:05;100402.47;;;8.79;100.00
20455;BME280;10386;54.314;10.022;2023-02-17T01:19:32;100385.91;;;8.96;100.00
20455;BME280;10386;54.314;10.022;2023-02-17T01:21:59;100386.47;;;8.76;100.00
20455;BME280;10386;54.314;10.022;2023-02-17T01:24:26;100378.34;;;8.76;100.00
20455;BME280;10386;54.314;10.022;2023-02-17T01:26:53;100380.16;;;8.75;100.00
20455;BME280;10386;54.314;10.022;2023-02-17T01:29:19;100369.47;;;8.74;100.00
20455;BME280;10386;54.314;10.022;2023-02-17T01:31:46;100364.69;;;8.77;100.00
20455;BME280;10386;54.314;10.022;2023-02-17T01:34:13;100368.28;;;8.78;100.00
20455;BME280;10386;54.314;10.022;2023-02-17T01:36:40;100353.63;;;8.93;100.00
20455;BME280;10386;54.314;10.022;2023-02-17T01:39:06;100344.00;;;8.76;100.00
20455;BME280;10386;54.314;10.022;2023-02-17T01:41:33;100324.53;;;8.84;100.00
20455;BME280;10386;54.314;10.022;2023-02-17T01:44:15;100305.81;;;8.81;100.00
20455;BME280;10386;54.314;10.022;2023-02-17T01:46:51;100306.44;;;8.84;100.00
20455;BME280;10386;54.314;10.022;2023-02-17T01:57:15;100154.75;;;8.86;100.00
20455;BME280;10386;54.314;10.022;2023-02-17T01:59:44;100145.44;;;8.90;100.00
20455;BME280;10386;54.314;10.022;2023-02-17T02:02:11;100145.25;;;8.80;100.00
20455;BME280;10386;54.314;10.022;2023-02-17T02:04:40;100143.16;;;8.96;100.00
20455;BME280;10386;54.314;10.022;2023-02-17T02:07:17;100130.19;;;8.89;100.00
20455;BME280;10386;54.314;10.022;2023-02-17T02:09:49;100126.81;;;8.85;100.00
20455;BME280;10386;54.314;10.022;2023-02-17T02:12:24;100121.06;;;8.90;100.00
20455;BME280;10386;54.314;10.022;2023-02-17T02:14:52;100109.78;;;8.96;100.00
20455;BME280;10386;54.314;10.022;2023-02-17T02:22:59;100092.31;;;9.00;100.00
20455;BME280;10386;54.314;10.022;2023-02-17T02:25:51;100072.16;;;9.04;100.00
20455;BME280;10386;54.314;10.022;2023-02-17T02:34:14;100041.88;;;8.99;100.00
20455;BME280;10386;54.314;10.022;2023-02-17T02:39:17;100032.56;;;9.14;100.00
20455;BME280;10386;54.314;10.022;2023-02-17T02:42:06;100038.81;;;9.03;100.00
20455;BME280;10386;54.314;10.022;2023-02-17T02:44:35;100022.09;;;9.09;100.00
20455;BME280;10386;54.314;10.022;2023-02-17T02:47:04;100011.63;;;9.16;100.00
20455;BME280;10386;54.314;10.022;2023-02-17T02:49:34;100007.22;;;9.15;100.00
20455;BME280;10386;54.314;10.022;2023-02-17T02:52:11;100011.03;;;9.12;100.00
20455;BME280;10386;54.314;10.022;2023-02-17T02:54:59;99973.88;;;9.14;100.00
20455;BME280;10386;54.314;10.022;2023-02-17T03:00:28;99974.22;;;9.21;100.00
20455;BME280;10386;54.314;10.022;2023-02-17T03:02:59;99966.75;;;9.24;100.00
20455;BME280;10386;54.314;10.022;2023-02-17T03:05:39;99938.91;;;9.11;100.00
20455;BME280;10386;54.314;10.022;2023-02-17T03:08:21;99932.13;;;9.17;100.00
20455;BME280;10386;54.314;10.022;2023-02-17T03:10:53;99931.63;;;9.23;100.00
20455;BME280;10386;54.314;10.022;2023-02-17T03:13:20;99928.81;;;9.24;100.00
20455;BME280;10386;54.314;10.022;2023-02-17T03:15:47;99918.09;;;9.23;100.00
20455;BME280;10386;54.314;10.022;2023-02-17T03:18:15;99918.00;;;9.24;100.00
20455;BME280;10386;54.314;10.022;2023-02-17T03:20:46;99828.75;;;9.23;100.00
20455;BME280;10386;54.314;10.022;2023-02-17T03:23:14;99833.31;;;9.22;100.00
20455;BME280;10386;54.314;10.022;2023-02-17T03:25:41;99833.91;;;9.26;100.00
20455;BME280;10386;54.314;10.022;2023-02-17T03:28:10;99824.31;;;9.22;100.00
20455;BME280;10386;54.314;10.022;2023-02-17T03:30:37;99823.94;;;9.26;100.00
20455;BME280;10386;54.314;10.022;2023-02-17T03:33:04;99816.41;;;9.30;100.00
20455;BME280;10386;54.314;10.022;2023-02-17T03:35:31;99809.16;;;9.30;100.00
20455;BME280;10386;54.314;10.022;2023-02-17T03:37:57;99795.38;;;9.33;100.00
20455;BME280;10386;54.314;10.022;2023-02-17T03:40:24;99784.41;;;9.35;100.00
20455;BME280;10386;54.314;10.022;2023-02-17T03:42:51;99791.56;;;9.36;100.00
20455;BME280;10386;54.314;10.022;2023-02-17T03:45:18;99785.91;;;9.39;100.00
20455;BME280;10386;54.314;10.022;2023-02-17T03:47:45;99785.38;;;9.34;100.00
20455;BME280;10386;54.314;10.022;2023-02-17T03:50:12;99791.56;;;9.36;100.00
20455;BME280;10386;54.314;10.022;2023-02-17T03:52:39;99788.84;;;9.36;100.00
20455;BME280;10386;54.314;10.022;2023-02-17T03:55:05;99780.81;;;9.45;100.00
20455;BME280;10386;54.314;10.022;2023-02-17T03:57:32;99784.66;;;9.43;100.00
20455;BME280;10386;54.314;10.022;2023-02-17T04:00:00;99776.91;;;9.38;100.00
20455;BME280;10386;54.314;10.022;2023-02-17T04:02:27;99770.59;;;9.49;100.00
20455;BME280;10386;54.314;10.022;2023-02-17T04:04:53;99774.06;;;9.40;100.00
20455;BME280;10386;54.314;10.022;2023-02-17T04:07:20;99772.56;;;9.47;100.00
20455;BME280;10386;54.314;10.022;2023-02-17T04:09:47;99761.59;;;9.48;100.00
20455;BME280;10386;54.314;10.022;2023-02-17T04:12:14;99754.09;;;9.52;100.00
20455;BME280;10386;54.314;10.022;2023-02-17T04:14:41;99756.06;;;9.50;100.00
20455;BME280;10386;54.314;10.022;2023-02-17T04:17:08;99748.25;;;9.56;100.00
20455;BME280;10386;54.314;10.022;2023-02-17T04:19:34;99739.81;;;9.50;100.00
20455;BME280;10386;54.314;10.022;2023-02-17T04:22:01;99739.56;;;9.53;100.00
20455;BME280;10386;54.314;10.022;2023-02-17T04:24:28;99739.13;;;9.57;100.00
20455;BME280;10386;54.314;10.022;2023-02-17T04:26:55;99740.53;;;9.52;100.00
20455;BME280;10386;54.314;10.022;2023-02-17T04:29:21;99726.84;;;9.53;100.00
20455;BME280;10386;54.314;10.022;2023-02-17T04:31:48;99710.75;;;9.52;100.00
20455;BME280;10386;54.314;10.022;2023-02-17T04:34:15;99709.75;;;9.53;100.00
20455;BME280;10386;54.314;10.022;2023-02-17T04:36:42;99705.31;;;9.52;100.00
20455;BME280;10386;54.314;10.022;2023-02-17T04:39:09;99705.31;;;9.52;100.00
20455;BME280;10386;54.314;10.022;2023-02-17T04:41:36;99691.72;;;9.62;100.00
20455;BME280;10386;54.314;10.022;2023-02-17T04:44:03;99694.44;;;9.62;100.00
20455;BME280;10386;54.314;10.022;2023-02-17T04:46:30;99692.03;;;9.69;100.00
20455;BME280;10386;54.314;10.022;2023-02-17T04:48:57;99681.59;;;9.64;100.00
20455;BME280;10386;54.314;10.022;2023-02-17T04:51:23;99673.69;;;9.72;100.00
20455;BME280;10386;54.314;10.022;2023-02-17T04:53:50;99680.63;;;9.65;100.00
20455;BME280;10386;54.314;10.022;2023-02-17T04:56:17;99670.63;;;9.66;100.00
20455;BME280;10386;54.314;10.022;2023-02-17T04:58:44;99676.03;;;9.66;100.00
20455;BME280;10386;54.314;10.022;2023-02-17T05:01:10;99684.44;;;9.63;100.00
20455;BME280;10386;54.314;10.022;2023-02-17T05:03:37;99668.63;;;9.68;100.00
20455;BME280;10386;54.314;10.022;2023-02-17T05:06:04;99660.13;;;9.72;100.00
20455;BME280;10386;54.314;10.022;2023-02-17T05:08:31;99659.06;;;9.64;100.00
20455;BME280;10386;54.314;10.022;2023-02-17T05:10:58;99655.50;;;9.63;100.00
20455;BME280;10386;54.314;10.022;2023-02-17T05:13:24;99652.72;;;9.74;100.00
20455;BME280;10386;54.314;10.022;2023-02-17T05:15:52;99650.13;;;9.73;100.00
20455;BME280;10386;54.314;10.022;2023-02-17T05:18:19;99647.75;;;9.79;100.00
20455;BME280;10386;54.314;10.022;2023-02-17T05:20:50;99640.88;;;9.75;100.00
20455;BME280;10386;54.314;10.022;2023-02-17T05:23:17;99636.81;;;9.81;100.00
20455;BME280;10386;54.314;10.022;2023-02-17T05:25:44;99623.91;;;9.73;100.00
20455;BME280;10386;54.314;10.022;2023-02-17T05:28:11;99617.16;;;9.68;100.00
20455;BME280;10386;54.314;10.022;2023-02-17T05:30:37;99608.22;;;9.77;100.00
20455;BME280;10386;54.314;10.022;2023-02-17T05:33:04;99616.22;;;9.78;100.00
20455;BME280;10386;54.314;10.022;2023-02-17T05:35:33;99614.19;;;9.71;100.00
20455;BME280;10386;54.314;10.022;2023-02-17T05:38:00;99613.34;;;9.70;100.00
20455;BME280;10386;54.314;10.022;2023-02-17T05:40:27;99598.72;;;9.82;100.00
20455;BME280;10386;54.314;10.022;2023-02-17T05:42:54;99594.66;;;9.77;100.00
20455;BME280;10386;54.314;10.022;2023-02-17T05:45:20;99597.38;;;9.77;100.00
20455;BME280;10386;54.314;10.022;2023-02-17T05:47:47;99600.84;;;9.79;100.00
20455;BME280;10386;54.314;10.022;2023-02-17T05:50:14;99597.38;;;9.77;100.00
20455;BME280;10386;54.314;10.022;2023-02-17T05:52:41;99591.22;;;9.75;100.00
20455;BME280;10386;54.314;10.022;2023-02-17T05:55:07;99590.13;;;9.77;100.00
20455;BME280;10386;54.314;10.022;2023-02-17T05:57:34;99593.22;;;9.73;100.00
20455;BME280;10386;54.314;10.022;2023-02-17T06:00:01;99568.00;;;9.72;100.00
20455;BME280;10386;54.314;10.022;2023-02-17T06:02:28;99573.69;;;9.69;100.00
20455;BME280;10386;54.314;10.022;2023-02-17T06:04:55;99568.31;;;9.79;100.00
20455;BME280;10386;54.314;10.022;2023-02-17T06:07:22;99565.13;;;9.74;100.00
20455;BME280;10386;54.314;10.022;2023-02-17T06:09:49;99568.44;;;9.77;100.00
20455;BME280;10386;54.314;10.022;2023-02-17T06:12:15;99567.00;;;9.73;100.00
20455;BME280;10386;54.314;10.022;2023-02-17T06:14:42;99569.31;;;9.78;100.00
20455;BME280;10386;54.314;10.022;2023-02-17T06:17:09;99569.16;;;9.79;100.00
20455;BME280;10386;54.314;10.022;2023-02-17T06:19:36;99555.50;;;9.81;100.00
20455;BME280;10386;54.314;10.022;2023-02-17T06:22:02;99542.06;;;9.79;100.00
20455;BME280;10386;54.314;10.022;2023-02-17T06:24:29;99546.94;;;9.85;100.00
20455;BME280;10386;54.314;10.022;2023-02-17T06:26:56;99535.53;;;9.82;100.00
20455;BME280;10386;54.314;10.022;2023-02-17T06:29:23;99536.25;;;9.84;100.00
20455;BME280;10386;54.314;10.022;2023-02-17T06:31:49;99532.81;;;9.82;100.00
20455;BME280;10386;54.314;10.022;2023-02-17T06:34:16;99530.69;;;9.85;100.00
20455;BME280;10386;54.314;10.022;2023-02-17T06:36:43;99526.53;;;9.81;100.00
20455;BME280;10386;54.314;10.022;2023-02-17T06:39:10;99523.09;;;9.79;100.00
20455;BME280;10386;54.314;10.022;2023-02-17T06:41:37;99513.16;;;9.89;100.00
20455;BME280;10386;54.314;10.022;2023-02-17T06:44:04;99505.28;;;9.86;100.00
20455;BME280;10386;54.314;10.022;2023-02-17T06:46:30;99504.56;;;9.84;100.00
20455;BME280;10386;54.314;10.022;2023-02-17T06:48:57;99503.44;;;9.87;100.00
20455;BME280;10386;54.314;10.022;2023-02-17T06:51:26;99494.19;;;9.89;100.00
20455;BME280;10386;54.314;10.022;2023-02-17T06:53:53;99489.19;;;9.85;100.00
20455;BME280;10386;54.314;10.022;2023-02-17T06:56:20;99483.59;;;9.86;100.00
20455;BME280;10386;54.314;10.022;2023-02-17T06:58:47;99480.59;;;9.80;100.00
20455;BME280;10386;54.314;10.022;2023-02-17T07:01:22;99468.78;;;9.90;100.00
20455;BME280;10386;54.314;10.022;2023-02-17T07:03:49;99457.38;;;9.87;100.00
20455;BME280;10386;54.314;10.022;2023-02-17T07:06:16;99472.50;;;9.89;100.00
20455;BME280;10386;54.314;10.022;2023-02-17T07:08:43;99468.22;;;9.96;100.00
20455;BME280;10386;54.314;10.022;2023-02-17T07:11:11;99460.38;;;9.93;100.00
20455;BME280;10386;54.314;10.022;2023-02-17T07:13:38;99443.28;;;9.93;100.00
20455;BME280;10386;54.314;10.022;2023-02-17T07:16:11;99432.97;;;9.87;100.00
20455;BME280;10386;54.314;10.022;2023-02-17T07:18:39;99438.97;;;9.90;100.00
20455;BME280;10386;54.314;10.022;2023-02-17T07:21:07;99441.56;;;9.92;100.00
20455;BME280;10386;54.314;10.022;2023-02-17T07:23:35;99433.53;;;9.90;100.00
20455;BME280;10386;54.314;10.022;2023-02-17T07:26:03;99421.44;;;9.94;100.00
20455;BME280;10386;54.314;10.022;2023-02-17T07:28:31;99426.72;;;9.96;100.00
20455;BME280;10386;54.314;10.022;2023-02-17T07:31:13;99420.44;;;9.95;100.00
20455;BME280;10386;54.314;10.022;2023-02-17T07:33:41;99409.75;;;9.94;100.00
20455;BME280;10386;54.314;10.022;2023-02-17T07:36:09;99398.09;;;10.03;100.00
20455;BME280;10386;54.314;10.022;2023-02-17T07:38:37;99398.47;;;9.98;100.00
20455;BME280;10386;54.314;10.022;2023-02-17T07:41:09;99399.63;;;9.96;100.00
20455;BME280;10386;54.314;10.022;2023-02-17T07:43:36;99397.03;;;9.94;100.00
20455;BME280;10386;54.314;10.022;2023-02-17T07:46:04;99383.75;;;9.91;100.00
20455;BME280;10386;54.314;10.022;2023-02-17T07:48:32;99373.50;;;9.95;100.00
20455;BME280;10386;54.314;10.022;2023-02-17T07:51:12;99366.66;;;9.91;100.00
20455;BME280;10386;54.314;10.022;2023-02-17T07:53:39;99372.63;;;9.94;100.00
20455;BME280;10386;54.314;10.022;2023-02-17T07:56:08;99361.66;;;9.96;100.00
20455;BME280;10386;54.314;10.022;2023-02-17T07:58:37;99358.09;;;9.95;100.00
20455;BME280;10386;54.314;10.022;2023-02-17T08:01:10;99350.50;;;9.89;100.00
20455;BME280;10386;54.314;10.022;2023-02-17T08:03:37;99341.97;;;9.94;100.00
20455;BME280;10386;54.314;10.022;2023-02-17T08:06:12;99335.97;;;9.90;100.00
20455;BME280;10386;54.314;10.022;2023-02-17T08:08:40;99331.97;;;9.94;100.00
20455;BME280;10386;54.314;10.022;2023-02-17T08:11:25;99333.69;;;9.95;100.00
20455;BME280;10386;54.314;10.022;2023-02-17T08:14:13;99326.56;;;9.94;100.00
20455;BME280;10386;54.314;10.022;2023-02-17T08:16:40;99322.56;;;9.98;100.00
20455;BME280;10386;54.314;10.022;2023-02-17T08:19:07;99320.72;;;9.99;100.00
20455;BME280;10386;54.314;10.022;2023-02-17T08:21:34;99309.00;;;9.98;100.00
20455;BME280;10386;54.314;10.022;2023-02-17T08:24:00;99290.03;;;9.98;100.00
20455;BME280;10386;54.314;10.022;2023-02-17T08:26:27;99300.50;;;10.03;100.00
20455;BME280;10386;54.314;10.022;2023-02-17T08:28:54;99286.31;;;9.99;100.00
20455;BME280;10386;54.314;10.022;2023-02-17T08:31:26;99282.78;;;9.99;100.00
20455;BME280;10386;54.314;10.022;2023-02-17T08:33:54;99270.94;;;10.00;100.00
20455;BME280;10386;54.314;10.022;2023-02-17T08:36:22;99270.50;;;10.04;100.00
20455;BME280;10386;54.314;10.022;2023-02-17T08:38:52;99268.81;;;10.03;100.00
20455;BME280;10386;54.314;10.022;2023-02-17T08:41:30;99256.25;;;10.02;100.00
20455;BME280;10386;54.314;10.022;2023-02-17T08:43:58;99248.53;;;10.07;100.00
20455;BME280;10386;54.314;10.022;2023-02-17T08:46:26;99236.69;;;10.08;100.00
20455;BME280;10386;54.314;10.022;2023-02-17T08:48:54;99238.97;;;10.13;100.00
20455;BME280;10386;54.314;10.022;2023-02-17T08:51:22;99244.25;;;10.14;100.00
20455;BME280;10386;54.314;10.022;2023-02-17T08:53:56;99249.81;;;10.13;100.00
20455;BME280;10386;54.314;10.022;2023-02-17T08:56:25;99256.09;;;10.13;100.00
20455;BME280;10386;54.314;10.022;2023-02-17T08:58:53;99252.38;;;10.14;100.00
20455;BME280;10386;54.314;10.022;2023-02-17T09:01:21;99266.94;;;10.13;100.00
20455;BME280;10386;54.314;10.022;2023-02-17T09:03:49;99281.19;;;10.15;100.00
20455;BME280;10386;54.314;10.022;2023-02-17T09:06:16;99298.06;;;10.19;100.00
20455;BME280;10386;54.314;10.022;2023-02-17T09:08:44;99291.75;;;10.18;100.00
20455;BME280;10386;54.314;10.022;2023-02-17T09:11:12;99293.22;;;10.22;100.00
20455;BME280;10386;54.314;10.022;2023-02-17T09:13:40;99269.94;;;10.20;100.00
20455;BME280;10386;54.314;10.022;2023-02-17T09:16:07;99263.94;;;10.26;100.00
20455;BME280;10386;54.314;10.022;2023-02-17T09:18:35;99249.53;;;10.25;100.00
20455;BME280;10386;54.314;10.022;2023-02-17T09:21:08;99238.53;;;10.27;100.00
20455;BME280;10386;54.314;10.022;2023-02-17T09:23:35;99206.97;;;10.26;100.00
20455;BME280;10386;54.314;10.022;2023-02-17T09:26:04;99164.28;;;10.28;100.00
20455;BME280;10386;54.314;10.022;2023-02-17T09:28:32;99213.69;;;10.22;100.00
20455;BME280;10386;54.314;10.022;2023-02-17T09:31:11;99184.84;;;10.30;100.00
20455;BME280;10386;54.314;10.022;2023-02-17T09:33:39;99188.56;;;10.29;100.00
20455;BME280;10386;54.314;10.022;2023-02-17T09:36:08;99180.56;;;10.28;100.00
20455;BME280;10386;54.314;10.022;2023-02-17T09:38:36;99182.84;;;10.32;100.00
20455;BME280;10386;54.314;10.022;2023-02-17T09:43:49;99166.88;;;10.29;100.00
20455;BME280;10386;54.314;10.022;2023-02-17T09:46:22;99178.72;;;10.28;100.00
20455;BME280;10386;54.314;10.022;2023-02-17T09:48:51;99178.84;;;10.27;100.00
20455;BME280;10386;54.314;10.022;2023-02-17T09:51:26;99195.53;;;10.32;100.00
20455;BME280;10386;54.314;10.022;2023-02-17T09:54:07;99194.00;;;10.29;100.00
20455;BME280;10386;54.314;10.022;2023-02-17T09:56:39;99188.56;;;10.29;100.00
20455;BME280;10386;54.314;10.022;2023-02-17T09:59:38;99187.72;;;10.29;100.00
20455;BME280;10386;54.314;10.022;2023-02-17T10:02:15;99193.41;;;10.26;100.00
20455;BME280;10386;54.314;10.022;2023-02-17T10:04:46;99194.00;;;10.29;100.00
20455;BME280;10386;54.314;10.022;2023-02-17T10:07:20;99160.88;;;10.26;100.00
20455;BME280;10386;54.314;10.022;2023-02-17T10:10:07;99164.16;;;10.29;100.00
20455;BME280;10386;54.314;10.022;2023-02-17T10:12:49;99162.16;;;10.31;100.00
20455;BME280;10386;54.314;10.022;2023-02-17T10:15:33;99183.69;;;10.33;100.00
20455;BME280;10386;54.314;10.022;2023-02-17T10:18:29;99169.72;;;10.28;100.00
20455;BME280;10386;54.314;10.022;2023-02-17T10:21:15;99165.16;;;10.28;100.00
20455;BME280;10386;54.314;10.022;2023-02-17T10:23:47;99166.88;;;10.29;100.00
20455;BME280;10386;54.314;10.022;2023-02-17T10:28:53;99171.59;;;10.27;100.00
20455;BME280;10386;54.314;10.022;2023-02-17T10:34:18;99160.00;;;10.35;100.00
20455;BME280;10386;54.314;10.022;2023-02-17T10:36:56;99166.81;;;10.39;100.00
20455;BME280;10386;54.314;10.022;2023-02-17T10:39:43;99160.41;;;10.40;100.00
20455;BME280;10386;54.314;10.022;2023-02-17T10:42:19;99153.84;;;10.42;100.00
20455;BME280;10386;54.314;10.022;2023-02-17T10:44:48;99151.81;;;10.44;100.00
20455;BME280;10386;54.314;10.022;2023-02-17T10:47:18;99155.38;;;10.45;100.00
20455;BME280;10386;54.314;10.022;2023-02-17T10:49:49;99150.66;;;10.47;100.00
20455;BME280;10386;54.314;10.022;2023-02-17T10:52:20;99158.38;;;10.51;100.00
20455;BME280;10386;54.314;10.022;2023-02-17T10:55:04;99156.59;;;10.60;100.00
20455;BME280;10386;54.314;10.022;2023-02-17T10:57:53;99153.78;;;10.52;100.00
20455;BME280;10386;54.314;10.022;2023-02-17T11:00:21;99146.22;;;10.55;100.00
20455;BME280;10386;54.314;10.022;2023-02-17T11:02:49;99161.00;;;10.61;100.00
20455;BME280;10386;54.314;10.022;2023-02-17T11:05:30;99124.91;;;10.60;100.00
20455;BME280;10386;54.314;10.022;2023-02-17T11:08:06;99145.19;;;10.56;100.00
20455;BME280;10386;54.314;10.022;2023-02-17T11:10:39;99129.63;;;10.58;100.00
20455;BME280;10386;54.314;10.022;2023-02-17T11:13:30;99144.59;;;10.62;100.00
20455;BME280;10386;54.314;10.022;2023-02-17T11:15:57;99136.91;;;10.58;100.00
20455;BME280;10386;54.314;10.022;2023-02-17T11:18:28;99134.66;;;10.53;100.00
20455;BME280;10386;54.314;10.022;2023-02-17T11:21:06;99117.19;;;10.56;100.00
20455;BME280;10386;54.314;10.022;2023-02-17T11:23:57;99122.94;;;10.53;100.00
20455;BME280;10386;54.314;10.022;2023-02-17T11:26:30;99122.22;;;10.51;100.00
20455;BME280;10386;54.314;10.022;2023-02-17T11:29:15;99104.41;;;10.48;100.00
20455;BME280;10386;54.314;10.022;2023-02-17T11:32:03;99124.41;;;10.47;100.00
20455;BME280;10386;54.314;10.022;2023-02-17T11:34:37;99120.50;;;10.50;100.00
20455;BME280;10386;54.314;10.022;2023-02-17T11:39:42;99126.94;;;10.49;100.00
20455;BME280;10386;54.314;10.022;2023-02-17T11:42:35;99127.13;;;10.47;100.00
20455;BME280;10386;54.314;10.022;2023-02-17T11:45:15;99107.66;;;10.52;100.00
20455;BME280;10386;54.314;10.022;2023-02-17T11:47:55;99120.81;;;10.47;100.00
20455;BME280;10386;54.314;10.022;2023-02-17T11:50:31;99113.97;;;10.43;100.00
20455;BME280;10386;54.314;10.022;2023-02-17T11:53:16;99102.84;;;10.46;100.00
20455;BME280;10386;54.314;10.022;2023-02-17T11:55:57;99113.69;;;10.46;100.00
20455;BME280;10386;54.314;10.022;2023-02-17T12:10:04;99103.72;;;10.37;100.00
20455;BME280;10386;54.314;10.022;2023-02-17T12:17:56;99103.53;;;10.48;100.00
20455;BME280;10386;54.314;10.022;2023-02-17T12:23:30;99133.25;;;10.49;100.00
20455;BME280;10386;54.314;10.022;2023-02-17T12:26:14;99110.38;;;10.52;100.00
20455;BME280;10386;54.314;10.022;2023-02-17T12:28:52;99129.34;;;10.52;100.00
20455;BME280;10386;54.314;10.022;2023-02-17T12:31:48;99115.88;;;10.60;100.00
20455;BME280;10386;54.314;10.022;2023-02-17T12:34:25;99123.59;;;10.64;100.00
20455;BME280;10386;54.314;10.022;2023-02-17T12:36:55;99133.59;;;10.64;100.00
20455;BME280;10386;54.314;10.022;2023-02-17T12:42:13;99117.34;;;10.81;100.00
20455;BME280;10386;54.314;10.022;2023-02-17T12:45:09;99118.34;;;10.80;100.00
20455;BME280;10386;54.314;10.022;2023-02-17T12:47:56;99120.53;;;10.77;100.00
20455;BME280;10386;54.314;10.022;2023-02-17T12:50:36;99120.63;;;10.85;100.00
20455;BME280;10386;54.314;10.022;2023-02-17T12:53:10;99149.22;;;10.79;100.00
20455;BME280;10386;54.314;10.022;2023-02-17T12:55:43;99150.53;;;10.75;100.00
20455;BME280;10386;54.314;10.022;2023-02-17T12:58:23;99163.00;;;10.68;100.00
20455;BME280;10386;54.314;10.022;2023-02-17T13:01:03;99182.28;;;10.65;100.00
20455;BME280;10386;54.314;10.022;2023-02-17T13:03:34;99193.31;;;10.64;100.00
20455;BME280;10386;54.314;10.022;2023-02-17T13:06:07;99189.03;;;10.61;100.00
20455;BME280;10386;54.314;10.022;2023-02-17T13:08:54;99174.16;;;10.65;100.00
20455;BME280;10386;54.314;10.022;2023-02-17T13:11:31;99204.97;;;10.74;100.00
20455;BME280;10386;54.314;10.022;2023-02-17T13:16:48;99204.91;;;10.83;100.00
20455;BME280;10386;54.314;10.022;2023-02-17T13:19:27;99215.94;;;10.82;100.00
20455;BME280;10386;54.314;10.022;2023-02-17T13:21:55;99240.47;;;10.90;100.00
20455;BME280;10386;54.314;10.022;2023-02-17T13:24:35;99230.63;;;10.89;100.00
20455;BME280;10386;54.314;10.022;2023-02-17T13:32:43;99285.38;;;10.75;100.00
20455;BME280;10386;54.314;10.022;2023-02-17T13:37:43;99309.06;;;10.82;100.00
20455;BME280;10386;54.314;10.022;2023-02-17T13:42:51;99319.34;;;10.88;100.00
20455;BME280;10386;54.314;10.022;2023-02-17T13:45:25;99360.06;;;10.88;100.00
20455;BME280;10386;54.314;10.022;2023-02-17T13:47:58;99358.63;;;10.84;100.00
20455;BME280;10386;54.314;10.022;2023-02-17T13:50:30;99402.22;;;10.83;100.00
20455;BME280;10386;54.314;10.022;2023-02-17T13:52:59;99397.22;;;10.88;100.00
20455;BME280;10386;54.314;10.022;2023-02-17T13:55:26;99406.38;;;10.87;100.00
20455;BME280;10386;54.314;10.022;2023-02-17T13:57:57;99430.50;;;10.80;100.00
20455;BME280;10386;54.314;10.022;2023-02-17T14:00:27;99445.94;;;10.80;100.00
20455;BME280;10386;54.314;10.022;2023-02-17T14:05:48;99506.25;;;10.74;100.00
20455;BME280;10386;54.314;10.022;2023-02-17T14:08:36;99631.09;;;10.74;100.00
20455;BME280;10386;54.314;10.022;2023-02-17T14:11:14;99643.38;;;10.68;100.00
20455;BME280;10386;54.314;10.022;2023-02-17T14:13:47;99697.25;;;10.73;100.00
20455;BME280;10386;54.314;10.022;2023-02-17T14:19:07;99732.09;;;10.68;100.00
20455;BME280;10386;54.314;10.022;2023-02-17T14:21:39;99766.66;;;10.66;100.00